sensor_id;sensor_type;location;lat;lon;timestamp;pressure;altitude;pressure_sealevel;temperature;humidity
67430;BME280;54298;52.076;5.264;2023-02-04T00:00:00;103173.0;;;9.61;72.05
67430;BME280;54298;52.076;5.264;2023-02-04T00:01:37;103173.0;;;9.66;72.02
67430;BME280;54298;52.076;5.264;2023-02-04T00:03:14;103175.0;;;9.66;71.99
67430;BME280;54298;52.076;5.264;2023-02-04T00:04:50;103177.0;;;9.72;71.83
67430;BME280;54298;52.076;5.264;2023-02-04T00:08:04;103181.0;;;9.66;72.14
67430;BME280;54298;52.076;5.264;2023-02-04T00:09:40;103188.00000000001;;;9.58;72.55
67430;BME280;54298;52.076;5.264;2023-02-04T00:11:16;103188.00000000001;;;9.52;72.88
67430;BME280;54298;52.076;5.264;2023-02-04T00:14:28;103184.99999999999;;;9.5;73.16
67430;BME280;54298;52.076;5.264;2023-02-04T00:16:05;103189.00000000001;;;9.4;73.55
67430;BME280;54298;52.076;5.264;2023-02-04T00:17:41;103191.00000000001;;;9.42;73.72
67430;BME280;54298;52.076;5.264;2023-02-04T00:20:54;103192.0;;;9.34;73.97
67430;BME280;54298;52.076;5.264;2023-02-04T00:22:30;103192.0;;;9.42;73.8
67430;BME280;54298;52.076;5.264;2023-02-04T00:24:06;103192.0;;;9.4;73.88
67430;BME280;54298;52.076;5.264;2023-02-04T00:25:42;103192.0;;;9.27;74.33
67430;BME280;54298;52.076;5.264;2023-02-04T00:28:55;103199.0;;;9.3;74.39
67430;BME280;54298;52.076;5.264;2023-02-04T00:30:31;103202.0;;;9.25;74.63
67430;BME280;54298;52.076;5.264;2023-02-04T00:32:08;103204.0;;;9.34;74.16
67430;BME280;54298;52.076;5.264;2023-02-04T00:35:20;103206.0;;;9.38;73.98
67430;BME280;54298;52.076;5.264;2023-02-04T00:36:57;103200.0;;;9.3;74.28
67430;BME280;54298;52.076;5.264;2023-02-04T00:38:33;103199.0;;;9.23;74.42
67430;BME280;54298;52.076;5.264;2023-02-04T00:41:47;103202.0;;;9.19;74.67
67430;BME280;54298;52.076;5.264;2023-02-04T00:43:23;103205.0;;;9.03;75.37
67430;BME280;54298;52.076;5.264;2023-02-04T00:44:59;103208.0;;;9.02;75.52
67430;BME280;54298;52.076;5.264;2023-02-04T00:46:35;103216.00000000001;;;8.98;75.61
67430;BME280;54298;52.076;5.264;2023-02-04T00:49:47;103215.00000000001;;;8.82;76.44
67430;BME280;54298;52.076;5.264;2023-02-04T00:51:24;103225.0;;;8.85;76.34
67430;BME280;54298;52.076;5.264;2023-02-04T00:53:01;103224.0;;;8.81;76.5
67430;BME280;54298;52.076;5.264;2023-02-04T00:56:13;103223.0;;;8.82;76.77
67430;BME280;54298;52.076;5.264;2023-02-04T00:57:50;103225.0;;;8.72;77.3
67430;BME280;54298;52.076;5.264;2023-02-04T00:59:26;103222.0;;;8.72;77.27
67430;BME280;54298;52.076;5.264;2023-02-04T01:02:40;103230.0;;;8.73;77.59
67430;BME280;54298;52.076;5.264;2023-02-04T01:04:16;103225.0;;;8.67;78.22
67430;BME280;54298;52.076;5.264;2023-02-04T01:05:53;103230.0;;;8.68;78.08
67430;BME280;54298;52.076;5.264;2023-02-04T01:07:29;103227.0;;;8.74;78.16
67430;BME280;54298;52.076;5.264;2023-02-04T01:10:42;103223.0;;;8.82;77.91
67430;BME280;54298;52.076;5.264;2023-02-04T01:12:18;103232.0;;;8.69;78.41
67430;BME280;54298;52.076;5.264;2023-02-04T01:13:54;103234.99999999999;;;8.74;78.56
67430;BME280;54298;52.076;5.264;2023-02-04T01:17:06;103241.00000000001;;;8.71;78.91
67430;BME280;54298;52.076;5.264;2023-02-04T01:18:42;103241.00000000001;;;8.71;79.02
67430;BME280;54298;52.076;5.264;2023-02-04T01:20:19;103247.0;;;8.66;79.41
67430;BME280;54298;52.076;5.264;2023-02-04T01:23:32;103244.0;;;8.67;79.67
67430;BME280;54298;52.076;5.264;2023-02-04T01:25:08;103252.0;;;8.71;79.69
67430;BME280;54298;52.076;5.264;2023-02-04T01:26:44;103251.0;;;8.66;79.86
67430;BME280;54298;52.076;5.264;2023-02-04T01:29:56;103259.99999999999;;;8.69;79.94
67430;BME280;54298;52.076;5.264;2023-02-04T01:31:33;103258.99999999999;;;8.58;80.7
67430;BME280;54298;52.076;5.264;2023-02-04T01:33:09;103258.99999999999;;;8.66;80.49
67430;BME280;54298;52.076;5.264;2023-02-04T01:34:46;103259.99999999999;;;8.64;80.66
67430;BME280;54298;52.076;5.264;2023-02-04T01:37:58;103264.00000000001;;;8.67;80.7
67430;BME280;54298;52.076;5.264;2023-02-04T01:39:36;103270.0;;;8.68;80.69
67430;BME280;54298;52.076;5.264;2023-02-04T01:41:13;103270.0;;;8.61;81.16
67430;BME280;54298;52.076;5.264;2023-02-04T01:44:27;103272.0;;;8.59;81.44
67430;BME280;54298;52.076;5.264;2023-02-04T01:47:41;103277.0;;;8.64;81.44
67430;BME280;54298;52.076;5.264;2023-02-04T01:49:19;103278.0;;;8.65;81.39
67430;BME280;54298;52.076;5.264;2023-02-04T01:52:41;103283.99999999999;;;8.6;81.63
67430;BME280;54298;52.076;5.264;2023-02-04T01:54:20;103283.0;;;8.58;81.66
67430;BME280;54298;52.076;5.264;2023-02-04T01:55:57;103291.00000000001;;;8.55;82.09
67430;BME280;54298;52.076;5.264;2023-02-04T01:59:12;103288.00000000001;;;8.64;81.83
67430;BME280;54298;52.076;5.264;2023-02-04T02:00:49;103284.99999999999;;;8.61;81.95
67430;BME280;54298;52.076;5.264;2023-02-04T02:02:44;103291.00000000001;;;8.56;82.22
67430;BME280;54298;52.076;5.264;2023-02-04T02:04:27;103290.00000000001;;;8.66;81.96
67430;BME280;54298;52.076;5.264;2023-02-04T02:06:07;103292.0;;;8.52;82.68
67430;BME280;54298;52.076;5.264;2023-02-04T02:09:21;103292.0;;;8.66;82.06
67430;BME280;54298;52.076;5.264;2023-02-04T02:10:58;103294.0;;;8.64;81.93
67430;BME280;54298;52.076;5.264;2023-02-04T02:12:34;103301.0;;;8.67;81.98
67430;BME280;54298;52.076;5.264;2023-02-04T02:15:48;103305.0;;;8.59;82.27
67430;BME280;54298;52.076;5.264;2023-02-04T02:17:24;103302.0;;;8.59;82.29
67430;BME280;54298;52.076;5.264;2023-02-04T02:19:01;103302.0;;;8.51;82.68
67430;BME280;54298;52.076;5.264;2023-02-04T02:22:23;103298.0;;;8.57;82.42
67430;BME280;54298;52.076;5.264;2023-02-04T02:24:23;103294.0;;;8.56;82.59
67430;BME280;54298;52.076;5.264;2023-02-04T02:26:01;103298.0;;;8.59;82.45
67430;BME280;54298;52.076;5.264;2023-02-04T02:27:37;103302.0;;;8.59;82.45
67430;BME280;54298;52.076;5.264;2023-02-04T02:29:14;103302.0;;;8.55;82.54
67430;BME280;54298;52.076;5.264;2023-02-04T02:32:27;103303.0;;;8.56;82.58
67430;BME280;54298;52.076;5.264;2023-02-04T02:34:03;103301.0;;;8.59;82.46
67430;BME280;54298;52.076;5.264;2023-02-04T02:35:43;103303.0;;;8.59;82.43
67430;BME280;54298;52.076;5.264;2023-02-04T02:38:59;103304.0;;;8.55;82.66
67430;BME280;54298;52.076;5.264;2023-02-04T02:40:35;103309.99999999999;;;8.53;82.82
67430;BME280;54298;52.076;5.264;2023-02-04T02:42:14;103308.0;;;8.57;82.69
67430;BME280;54298;52.076;5.264;2023-02-04T02:43:51;103308.99999999999;;;8.56;82.74
67430;BME280;54298;52.076;5.264;2023-02-04T02:47:11;103313.00000000001;;;8.58;82.67
67430;BME280;54298;52.076;5.264;2023-02-04T02:48:49;103309.99999999999;;;8.5;83.07
67430;BME280;54298;52.076;5.264;2023-02-04T02:50:28;103305.0;;;8.48;83.19
67430;BME280;54298;52.076;5.264;2023-02-04T02:52:04;103308.0;;;8.53;83.02
67430;BME280;54298;52.076;5.264;2023-02-04T02:55:18;103303.0;;;8.55;82.87
67430;BME280;54298;52.076;5.264;2023-02-04T02:56:56;103309.99999999999;;;8.51;82.92
67430;BME280;54298;52.076;5.264;2023-02-04T02:58:34;103313.00000000001;;;8.5;83.05
67430;BME280;54298;52.076;5.264;2023-02-04T03:01:53;103316.00000000001;;;8.48;83.04
67430;BME280;54298;52.076;5.264;2023-02-04T03:03:34;103319.0;;;8.39;83.42
67430;BME280;54298;52.076;5.264;2023-02-04T03:05:13;103317.0;;;8.43;83.28
67430;BME280;54298;52.076;5.264;2023-02-04T03:06:49;103315.00000000001;;;8.41;83.58
67430;BME280;54298;52.076;5.264;2023-02-04T03:10:04;103317.0;;;8.43;83.41
67430;BME280;54298;52.076;5.264;2023-02-04T03:11:40;103321.0;;;8.52;83.0
67430;BME280;54298;52.076;5.264;2023-02-04T03:13:17;103322.0;;;8.48;82.97
67430;BME280;54298;52.076;5.264;2023-02-04T03:16:32;103323.0;;;8.38;83.19
67430;BME280;54298;52.076;5.264;2023-02-04T03:18:10;103317.0;;;8.2;84.01
67430;BME280;54298;52.076;5.264;2023-02-04T03:19:48;103311.99999999999;;;8.22;84.14
67430;BME280;54298;52.076;5.264;2023-02-04T03:21:24;103308.99999999999;;;8.25;84.03
67430;BME280;54298;52.076;5.264;2023-02-04T03:24:37;103316.00000000001;;;8.31;83.79
67430;BME280;54298;52.076;5.264;2023-02-04T03:26:14;103317.0;;;8.26;83.95
67430;BME280;54298;52.076;5.264;2023-02-04T03:27:50;103316.00000000001;;;8.27;83.78
67430;BME280;54298;52.076;5.264;2023-02-04T03:31:04;103308.0;;;8.22;83.75
67430;BME280;54298;52.076;5.264;2023-02-04T03:32:40;103313.00000000001;;;8.14;83.85
67430;BME280;54298;52.076;5.264;2023-02-04T03:34:16;103308.99999999999;;;8.02;84.15
67430;BME280;54298;52.076;5.264;2023-02-04T03:37:30;103316.00000000001;;;8.13;84.03
67430;BME280;54298;52.076;5.264;2023-02-04T03:39:06;103315.00000000001;;;7.97;84.67
67430;BME280;54298;52.076;5.264;2023-02-04T03:40:43;103314.00000000001;;;7.84;85.2
67430;BME280;54298;52.076;5.264;2023-02-04T03:42:20;103320.0;;;7.92;85.05
67430;BME280;54298;52.076;5.264;2023-02-04T03:45:33;103322.0;;;7.94;84.69
67430;BME280;54298;52.076;5.264;2023-02-04T03:47:09;103319.0;;;7.92;84.83
67430;BME280;54298;52.076;5.264;2023-02-04T03:48:45;103321.0;;;7.7;85.36
67430;BME280;54298;52.076;5.264;2023-02-04T03:51:57;103326.0;;;7.7;85.09
67430;BME280;54298;52.076;5.264;2023-02-04T03:53:34;103336.99999999999;;;7.58;85.17
67430;BME280;54298;52.076;5.264;2023-02-04T03:55:10;103338.00000000001;;;7.58;85.34
67430;BME280;54298;52.076;5.264;2023-02-04T03:58:22;103342.0;;;7.62;85.1
67430;BME280;54298;52.076;5.264;2023-02-04T03:59:58;103336.99999999999;;;7.56;85.29
67430;BME280;54298;52.076;5.264;2023-02-04T04:01:35;103338.00000000001;;;7.54;85.03
67430;BME280;54298;52.076;5.264;2023-02-04T04:03:10;103340.00000000001;;;7.37;85.39
67430;BME280;54298;52.076;5.264;2023-02-04T04:06:23;103334.99999999999;;;7.27;85.74
67430;BME280;54298;52.076;5.264;2023-02-04T04:08:00;103338.00000000001;;;7.29;85.6
67430;BME280;54298;52.076;5.264;2023-02-04T04:09:36;103343.0;;;7.12;85.95
67430;BME280;54298;52.076;5.264;2023-02-04T04:12:50;103342.0;;;7.06;86.09
67430;BME280;54298;52.076;5.264;2023-02-04T04:14:26;103353.0;;;6.88;87.05
67430;BME280;54298;52.076;5.264;2023-02-04T04:16:03;103346.0;;;6.81;87.56
67430;BME280;54298;52.076;5.264;2023-02-04T04:19:15;103341.00000000001;;;6.79;87.66
67430;BME280;54298;52.076;5.264;2023-02-04T04:20:51;103339.00000000001;;;6.84;87.56
67430;BME280;54298;52.076;5.264;2023-02-04T04:22:28;103342.0;;;6.88;87.27
67430;BME280;54298;52.076;5.264;2023-02-04T04:25:41;103344.0;;;6.83;87.6
67430;BME280;54298;52.076;5.264;2023-02-04T04:27:17;103344.0;;;7.0;86.86
67430;BME280;54298;52.076;5.264;2023-02-04T04:28:53;103345.0;;;7.05;86.36
67430;BME280;54298;52.076;5.264;2023-02-04T04:30:29;103348.0;;;6.92;86.51
67430;BME280;54298;52.076;5.264;2023-02-04T04:33:42;103352.0;;;6.82;86.66
67430;BME280;54298;52.076;5.264;2023-02-04T04:35:18;103352.0;;;6.67;87.39
67430;BME280;54298;52.076;5.264;2023-02-04T04:36:54;103349.0;;;6.6;87.91
67430;BME280;54298;52.076;5.264;2023-02-04T04:40:10;103353.0;;;6.58;87.87
67430;BME280;54298;52.076;5.264;2023-02-04T04:41:47;103355.0;;;6.57;87.95
67430;BME280;54298;52.076;5.264;2023-02-04T04:43:23;103355.0;;;6.59;87.75
67430;BME280;54298;52.076;5.264;2023-02-04T04:46:35;103358.99999999999;;;6.7;87.23
67430;BME280;54298;52.076;5.264;2023-02-04T04:48:11;103363.00000000001;;;6.74;86.91
67430;BME280;54298;52.076;5.264;2023-02-04T04:49:47;103365.00000000001;;;6.68;86.63
67430;BME280;54298;52.076;5.264;2023-02-04T04:51:24;103358.99999999999;;;6.51;87.5
67430;BME280;54298;52.076;5.264;2023-02-04T04:54:36;103357.0;;;6.44;87.8
67430;BME280;54298;52.076;5.264;2023-02-04T04:56:12;103355.0;;;6.47;87.87
67430;BME280;54298;52.076;5.264;2023-02-04T04:57:48;103353.0;;;6.48;87.67
67430;BME280;54298;52.076;5.264;2023-02-04T05:01:00;103353.0;;;6.63;87.41
67430;BME280;54298;52.076;5.264;2023-02-04T05:02:37;103355.0;;;6.68;86.98
67430;BME280;54298;52.076;5.264;2023-02-04T05:04:13;103351.0;;;6.51;87.51
67430;BME280;54298;52.076;5.264;2023-02-04T05:07:25;103351.0;;;6.47;88.04
67430;BME280;54298;52.076;5.264;2023-02-04T05:09:03;103356.0;;;6.51;87.76
67430;BME280;54298;52.076;5.264;2023-02-04T05:10:40;103353.0;;;6.48;88.19
67430;BME280;54298;52.076;5.264;2023-02-04T05:12:16;103358.99999999999;;;6.42;88.35
67430;BME280;54298;52.076;5.264;2023-02-04T05:15:29;103364.00000000001;;;6.33;88.81
67430;BME280;54298;52.076;5.264;2023-02-04T05:17:05;103364.00000000001;;;6.37;88.93
67430;BME280;54298;52.076;5.264;2023-02-04T05:18:43;103359.99999999999;;;6.51;88.56
67430;BME280;54298;52.076;5.264;2023-02-04T05:21:56;103363.00000000001;;;6.44;88.42
67430;BME280;54298;52.076;5.264;2023-02-04T05:23:33;103359.99999999999;;;6.55;88.45
67430;BME280;54298;52.076;5.264;2023-02-04T05:25:10;103366.00000000001;;;6.53;88.45
67430;BME280;54298;52.076;5.264;2023-02-04T05:28:22;103367.0;;;6.55;88.48
67430;BME280;54298;52.076;5.264;2023-02-04T05:29:58;103361.99999999999;;;6.54;88.74
67430;BME280;54298;52.076;5.264;2023-02-04T05:31:35;103367.0;;;6.52;88.85
67430;BME280;54298;52.076;5.264;2023-02-04T05:33:11;103369.0;;;6.61;88.75
67430;BME280;54298;52.076;5.264;2023-02-04T05:36:23;103359.99999999999;;;6.6;88.84
67430;BME280;54298;52.076;5.264;2023-02-04T05:37:59;103358.99999999999;;;6.86;88.06
67430;BME280;54298;52.076;5.264;2023-02-04T05:39:35;103367.0;;;7.01;87.21
67430;BME280;54298;52.076;5.264;2023-02-04T05:42:48;103368.0;;;7.06;86.73
67430;BME280;54298;52.076;5.264;2023-02-04T05:44:24;103367.0;;;6.96;86.95
67430;BME280;54298;52.076;5.264;2023-02-04T05:46:00;103367.0;;;7.07;86.73
67430;BME280;54298;52.076;5.264;2023-02-04T05:49:14;103368.0;;;7.11;86.61
67430;BME280;54298;52.076;5.264;2023-02-04T05:50:51;103376.0;;;7.22;86.46
67430;BME280;54298;52.076;5.264;2023-02-04T05:52:27;103382.0;;;7.18;86.58
67430;BME280;54298;52.076;5.264;2023-02-04T05:54:03;103388.00000000001;;;7.24;86.69
67430;BME280;54298;52.076;5.264;2023-02-04T05:57:16;103391.00000000001;;;7.31;86.56
67430;BME280;54298;52.076;5.264;2023-02-04T05:58:52;103398.0;;;7.38;86.55
67430;BME280;54298;52.076;5.264;2023-02-04T06:00:28;103393.0;;;7.41;86.68
67430;BME280;54298;52.076;5.264;2023-02-04T06:03:40;103401.0;;;7.43;86.64
67430;BME280;54298;52.076;5.264;2023-02-04T06:05:18;103404.0;;;7.47;86.3
67430;BME280;54298;52.076;5.264;2023-02-04T06:06:54;103407.0;;;7.53;86.15
67430;BME280;54298;52.076;5.264;2023-02-04T06:10:08;103406.0;;;7.46;86.45
67430;BME280;54298;52.076;5.264;2023-02-04T06:11:45;103404.0;;;7.43;86.5
67430;BME280;54298;52.076;5.264;2023-02-04T06:13:21;103406.0;;;7.49;86.45
67430;BME280;54298;52.076;5.264;2023-02-04T06:14:57;103408.99999999999;;;7.46;86.24
67430;BME280;54298;52.076;5.264;2023-02-04T06:19:46;103417.0;;;7.35;86.63
67430;BME280;54298;52.076;5.264;2023-02-04T06:21:22;103421.0;;;7.23;86.92
67430;BME280;54298;52.076;5.264;2023-02-04T06:24:35;103424.0;;;7.26;86.98
67430;BME280;54298;52.076;5.264;2023-02-04T06:26:11;103432.0;;;7.22;87.04
67430;BME280;54298;52.076;5.264;2023-02-04T06:27:49;103442.0;;;7.17;87.54
67430;BME280;54298;52.076;5.264;2023-02-04T06:31:02;103444.0;;;7.26;87.25
67430;BME280;54298;52.076;5.264;2023-02-04T06:32:39;103448.0;;;7.2;87.08
67430;BME280;54298;52.076;5.264;2023-02-04T06:34:15;103449.0;;;7.17;87.14
67430;BME280;54298;52.076;5.264;2023-02-04T06:37:29;103455.0;;;7.23;87.29
67430;BME280;54298;52.076;5.264;2023-02-04T06:39:05;103453.0;;;7.27;87.01
67430;BME280;54298;52.076;5.264;2023-02-04T06:40:42;103455.0;;;7.33;86.91
67430;BME280;54298;52.076;5.264;2023-02-04T06:42:18;103453.0;;;7.39;86.84
67430;BME280;54298;52.076;5.264;2023-02-04T06:45:30;103454.0;;;7.52;86.38
67430;BME280;54298;52.076;5.264;2023-02-04T06:47:06;103458.0;;;7.31;86.75
67430;BME280;54298;52.076;5.264;2023-02-04T06:48:42;103464.00000000001;;;7.16;87.54
67430;BME280;54298;52.076;5.264;2023-02-04T06:51:54;103469.0;;;7.13;87.93
67430;BME280;54298;52.076;5.264;2023-02-04T06:53:30;103474.0;;;7.11;88.13
67430;BME280;54298;52.076;5.264;2023-02-04T06:55:06;103473.0;;;7.08;88.33
67430;BME280;54298;52.076;5.264;2023-02-04T06:58:18;103477.0;;;7.21;88.13
67430;BME280;54298;52.076;5.264;2023-02-04T06:59:54;103476.0;;;7.28;87.89
67430;BME280;54298;52.076;5.264;2023-02-04T07:01:30;103476.0;;;7.22;87.92
67430;BME280;54298;52.076;5.264;2023-02-04T07:03:06;103483.99999999999;;;7.24;87.75
67430;BME280;54298;52.076;5.264;2023-02-04T07:06:18;103481.0;;;7.36;87.27
67430;BME280;54298;52.076;5.264;2023-02-04T07:07:54;103480.0;;;7.27;87.33
67430;BME280;54298;52.076;5.264;2023-02-04T07:09:31;103478.0;;;7.18;87.83
67430;BME280;54298;52.076;5.264;2023-02-04T07:12:42;103477.0;;;7.22;87.85
67430;BME280;54298;52.076;5.264;2023-02-04T07:14:18;103484.99999999999;;;7.29;87.57
67430;BME280;54298;52.076;5.264;2023-02-04T07:15:54;103483.0;;;7.23;87.79
67430;BME280;54298;52.076;5.264;2023-02-04T07:19:07;103483.99999999999;;;7.18;87.74
67430;BME280;54298;52.076;5.264;2023-02-04T07:20:43;103480.0;;;7.2;87.85
67430;BME280;54298;52.076;5.264;2023-02-04T07:22:19;103483.99999999999;;;7.25;87.64
67430;BME280;54298;52.076;5.264;2023-02-04T07:25:32;103484.99999999999;;;7.33;87.19
67430;BME280;54298;52.076;5.264;2023-02-04T07:27:08;103490.00000000001;;;7.45;86.34
67430;BME280;54298;52.076;5.264;2023-02-04T07:28:44;103486.99999999999;;;7.56;85.76
67430;BME280;54298;52.076;5.264;2023-02-04T07:30:20;103494.0;;;7.58;85.4
67430;BME280;54298;52.076;5.264;2023-02-04T07:33:31;103494.0;;;7.38;85.91
67430;BME280;54298;52.076;5.264;2023-02-04T07:35:08;103498.0;;;7.32;86.23
67430;BME280;54298;52.076;5.264;2023-02-04T07:36:45;103502.0;;;7.37;86.33
67430;BME280;54298;52.076;5.264;2023-02-04T07:39:58;103504.0;;;7.34;86.39
67430;BME280;54298;52.076;5.264;2023-02-04T07:41:34;103507.0;;;7.5;85.91
67430;BME280;54298;52.076;5.264;2023-02-04T07:43:11;103509.99999999999;;;7.52;85.4
67430;BME280;54298;52.076;5.264;2023-02-04T07:46:22;103514.00000000001;;;7.49;85.5
67430;BME280;54298;52.076;5.264;2023-02-04T07:47:58;103517.0;;;7.37;85.58
67430;BME280;54298;52.076;5.264;2023-02-04T07:49:33;103516.00000000001;;;7.25;86.35
67430;BME280;54298;52.076;5.264;2023-02-04T07:52:45;103515.00000000001;;;7.16;87.03
67430;BME280;54298;52.076;5.264;2023-02-04T07:54:21;103519.0;;;7.2;87.19
67430;BME280;54298;52.076;5.264;2023-02-04T07:55:56;103525.0;;;7.37;86.49
67430;BME280;54298;52.076;5.264;2023-02-04T07:57:33;103520.0;;;7.38;86.44
67430;BME280;54298;52.076;5.264;2023-02-04T08:00:45;103523.0;;;7.47;86.27
67430;BME280;54298;52.076;5.264;2023-02-04T08:02:21;103532.0;;;7.36;86.49
67430;BME280;54298;52.076;5.264;2023-02-04T08:03:57;103530.0;;;7.52;86.11
67430;BME280;54298;52.076;5.264;2023-02-04T08:07:10;103533.0;;;7.43;86.17
67430;BME280;54298;52.076;5.264;2023-02-04T08:08:46;103539.00000000001;;;7.41;86.42
67430;BME280;54298;52.076;5.264;2023-02-04T08:10:22;103542.0;;;7.34;86.84
67430;BME280;54298;52.076;5.264;2023-02-04T08:13:35;103531.0;;;7.44;86.88
67430;BME280;54298;52.076;5.264;2023-02-04T08:15:12;103542.0;;;7.54;86.56
67430;BME280;54298;52.076;5.264;2023-02-04T08:16:48;103548.0;;;7.51;86.65
67430;BME280;54298;52.076;5.264;2023-02-04T08:18:24;103550.0;;;7.48;87.08
67430;BME280;54298;52.076;5.264;2023-02-04T08:21:36;103552.0;;;7.52;87.13
67430;BME280;54298;52.076;5.264;2023-02-04T08:23:12;103557.0;;;7.52;87.12
67430;BME280;54298;52.076;5.264;2023-02-04T08:24:48;103558.0;;;7.54;87.36
67430;BME280;54298;52.076;5.264;2023-02-04T08:28:01;103556.0;;;7.48;87.51
67430;BME280;54298;52.076;5.264;2023-02-04T08:29:38;103561.99999999999;;;7.55;87.62
67430;BME280;54298;52.076;5.264;2023-02-04T08:31:14;103561.99999999999;;;7.7;87.17
67430;BME280;54298;52.076;5.264;2023-02-04T08:34:26;103563.00000000001;;;7.74;87.12
67430;BME280;54298;52.076;5.264;2023-02-04T08:36:03;103565.00000000001;;;7.76;87.43
67430;BME280;54298;52.076;5.264;2023-02-04T08:37:39;103569.0;;;7.84;87.28
67430;BME280;54298;52.076;5.264;2023-02-04T08:40:52;103572.0;;;7.91;87.16
67430;BME280;54298;52.076;5.264;2023-02-04T08:42:28;103572.0;;;8.11;86.63
67430;BME280;54298;52.076;5.264;2023-02-04T08:44:05;103567.0;;;8.25;85.9
67430;BME280;54298;52.076;5.264;2023-02-04T08:45:41;103570.0;;;8.23;85.78
67430;BME280;54298;52.076;5.264;2023-02-04T08:48:54;103565.00000000001;;;8.27;85.94
67430;BME280;54298;52.076;5.264;2023-02-04T08:50:31;103569.0;;;8.24;86.08
67430;BME280;54298;52.076;5.264;2023-02-04T08:52:07;103572.0;;;8.18;86.53
67430;BME280;54298;52.076;5.264;2023-02-04T08:55:20;103575.0;;;8.26;86.52
67430;BME280;54298;52.076;5.264;2023-02-04T08:56:57;103579.0;;;8.3;86.09
67430;BME280;54298;52.076;5.264;2023-02-04T08:58:33;103583.0;;;8.31;86.0
67430;BME280;54298;52.076;5.264;2023-02-04T09:01:48;103583.99999999999;;;8.36;85.76
67430;BME280;54298;52.076;5.264;2023-02-04T09:03:25;103582.0;;;8.48;85.54
67430;BME280;54298;52.076;5.264;2023-02-04T09:05:01;103583.0;;;8.58;85.02
67430;BME280;54298;52.076;5.264;2023-02-04T09:06:37;103583.99999999999;;;8.67;84.56
67430;BME280;54298;52.076;5.264;2023-02-04T09:09:50;103586.99999999999;;;8.74;84.23
67430;BME280;54298;52.076;5.264;2023-02-04T09:11:26;103593.0;;;8.81;84.03
67430;BME280;54298;52.076;5.264;2023-02-04T09:13:03;103588.00000000001;;;8.76;84.31
67430;BME280;54298;52.076;5.264;2023-02-04T09:16:17;103591.00000000001;;;8.74;84.47
67430;BME280;54298;52.076;5.264;2023-02-04T09:18:00;103590.00000000001;;;8.89;84.1
67430;BME280;54298;52.076;5.264;2023-02-04T09:19:36;103584.99999999999;;;8.96;83.58
67430;BME280;54298;52.076;5.264;2023-02-04T09:21:13;103590.00000000001;;;8.91;83.49
67430;BME280;54298;52.076;5.264;2023-02-04T09:24:25;103589.00000000001;;;9.08;82.97
67430;BME280;54298;52.076;5.264;2023-02-04T09:26:03;103583.99999999999;;;9.02;83.07
67430;BME280;54298;52.076;5.264;2023-02-04T09:27:40;103591.00000000001;;;9.09;83.02
67430;BME280;54298;52.076;5.264;2023-02-04T09:30:53;103590.00000000001;;;9.14;82.54
67430;BME280;54298;52.076;5.264;2023-02-04T09:32:28;103593.0;;;9.23;81.75
67430;BME280;54298;52.076;5.264;2023-02-04T09:34:05;103592.0;;;9.25;81.42
67430;BME280;54298;52.076;5.264;2023-02-04T09:37:17;103590.00000000001;;;9.23;81.27
67430;BME280;54298;52.076;5.264;2023-02-04T09:38:53;103589.00000000001;;;9.25;81.03
67430;BME280;54298;52.076;5.264;2023-02-04T09:40:32;103590.00000000001;;;9.23;81.53
67430;BME280;54298;52.076;5.264;2023-02-04T09:42:12;103591.00000000001;;;9.39;81.36
67430;BME280;54298;52.076;5.264;2023-02-04T09:45:29;103594.0;;;9.43;81.03
67430;BME280;54298;52.076;5.264;2023-02-04T09:47:09;103597.0;;;9.49;80.56
67430;BME280;54298;52.076;5.264;2023-02-04T09:48:48;103595.0;;;9.48;80.58
67430;BME280;54298;52.076;5.264;2023-02-04T09:50:27;103599.0;;;9.53;79.63
67430;BME280;54298;52.076;5.264;2023-02-04T09:53:46;103604.0;;;9.55;79.58
67430;BME280;54298;52.076;5.264;2023-02-04T09:55:27;103608.0;;;9.65;78.86
67430;BME280;54298;52.076;5.264;2023-02-04T09:57:12;103608.0;;;9.64;79.25
67430;BME280;54298;52.076;5.264;2023-02-04T09:58:51;103608.0;;;9.61;79.2
67430;BME280;54298;52.076;5.264;2023-02-04T10:02:17;103613.00000000001;;;9.65;79.37
67430;BME280;54298;52.076;5.264;2023-02-04T10:04:00;103613.00000000001;;;9.67;79.74
67430;BME280;54298;52.076;5.264;2023-02-04T10:05:37;103616.00000000001;;;9.73;79.59
67430;BME280;54298;52.076;5.264;2023-02-04T10:07:16;103608.99999999999;;;9.81;79.64
67430;BME280;54298;52.076;5.264;2023-02-04T10:10:32;103618.0;;;9.89;79.3
67430;BME280;54298;52.076;5.264;2023-02-04T10:12:08;103617.0;;;9.9;78.7
67430;BME280;54298;52.076;5.264;2023-02-04T10:13:46;103617.0;;;9.9;77.87
67430;BME280;54298;52.076;5.264;2023-02-04T10:17:00;103620.0;;;9.89;76.83
67430;BME280;54298;52.076;5.264;2023-02-04T10:18:38;103621.0;;;10.02;76.25
67430;BME280;54298;52.076;5.264;2023-02-04T10:20:16;103618.0;;;10.06;75.33
67430;BME280;54298;52.076;5.264;2023-02-04T10:21:54;103619.0;;;10.17;74.24
67430;BME280;54298;52.076;5.264;2023-02-04T10:25:11;103619.0;;;10.21;74.27
67430;BME280;54298;52.076;5.264;2023-02-04T10:26:48;103627.0;;;10.16;73.75
67430;BME280;54298;52.076;5.264;2023-02-04T10:28:32;103627.0;;;10.31;73.16
67430;BME280;54298;52.076;5.264;2023-02-04T10:30:17;103623.0;;;10.41;73.59
67430;BME280;54298;52.076;5.264;2023-02-04T10:33:32;103626.0;;;10.39;73.41
67430;BME280;54298;52.076;5.264;2023-02-04T10:35:12;103626.0;;;10.48;72.8
67430;BME280;54298;52.076;5.264;2023-02-04T10:36:51;103625.0;;;10.58;72.27
67430;BME280;54298;52.076;5.264;2023-02-04T10:40:25;103627.0;;;10.69;71.33
67430;BME280;54298;52.076;5.264;2023-02-04T10:42:02;103622.0;;;10.64;71.06
67430;BME280;54298;52.076;5.264;2023-02-04T10:43:38;103624.0;;;10.64;71.22
67430;BME280;54298;52.076;5.264;2023-02-04T10:45:23;103621.0;;;10.68;70.53
67430;BME280;54298;52.076;5.264;2023-02-04T10:46:59;103622.0;;;10.66;70.83